sensor_id;sensor_type;location;lat;lon;timestamp;pressure;altitude;pressure_sealevel;temperature;humidity
79413;BME280;68863;49.528;11.010;2023-12-20T00:00:29;98225.13;;;7.94;71.21
79413;BME280;68863;49.528;11.010;2023-12-20T00:01:29;98224.31;;;7.93;71.25
79413;BME280;68863;49.528;11.010;2023-12-20T00:02:29;98215.06;;;7.73;71.87
79413;BME280;68863;49.528;11.010;2023-12-20T00:03:30;98223.06;;;7.99;71.31
79413;BME280;68863;49.528;11.010;2023-12-20T00:04:30;98220.56;;;7.97;70.94
79413;BME280;68863;49.528;11.010;2023-12-20T00:05:30;98218.78;;;7.98;71.38
79413;BME280;68863;49.528;11.010;2023-12-20T00:06:33;98219.63;;;8.13;70.91
79413;BME280;68863;49.528;11.010;2023-12-20T00:07:33;98222.97;;;8.15;70.97
79413;BME280;68863;49.528;11.010;2023-12-20T00:08:34;98216.44;;;8.22;70.73
79413;BME280;68863;49.528;11.010;2023-12-20T00:09:34;98225.59;;;8.15;70.76
79413;BME280;68863;49.528;11.010;2023-12-20T00:10:34;98220.94;;;8.20;70.98
79413;BME280;68863;49.528;11.010;2023-12-20T00:11:35;98222.22;;;8.27;70.51
79413;BME280;68863;49.528;11.010;2023-12-20T00:12:35;98218.13;;;7.94;71.88
79413;BME280;68863;49.528;11.010;2023-12-20T00:13:35;98212.16;;;7.78;72.42
79413;BME280;68863;49.528;11.010;2023-12-20T00:14:35;98215.97;;;8.15;71.30
79413;BME280;68863;49.528;11.010;2023-12-20T00:15:36;98218.78;;;7.83;72.06
79413;BME280;68863;49.528;11.010;2023-12-20T00:16:36;98216.28;;;7.96;72.04
79413;BME280;68863;49.528;11.010;2023-12-20T00:17:36;98211.41;;;7.90;71.61
79413;BME280;68863;49.528;11.010;2023-12-20T00:18:37;98208.25;;;7.85;72.30
79413;BME280;68863;49.528;11.010;2023-12-20T00:19:37;98209.16;;;7.98;71.60
79413;BME280;68863;49.528;11.010;2023-12-20T00:20:38;98200.56;;;7.68;72.77
79413;BME280;68863;49.528;11.010;2023-12-20T00:21:38;98198.44;;;7.74;72.69
79413;BME280;68863;49.528;11.010;2023-12-20T00:22:38;98199.53;;;7.56;73.66
79413;BME280;68863;49.528;11.010;2023-12-20T00:23:38;98204.50;;;7.75;73.20
79413;BME280;68863;49.528;11.010;2023-12-20T00:24:39;98202.72;;;7.90;72.25
79413;BME280;68863;49.528;11.010;2023-12-20T00:25:39;98201.31;;;7.70;72.35
79413;BME280;68863;49.528;11.010;2023-12-20T00:26:39;98192.94;;;7.65;73.03
79413;BME280;68863;49.528;11.010;2023-12-20T00:27:39;98193.94;;;7.91;72.20
79413;BME280;68863;49.528;11.010;2023-12-20T00:28:39;98187.53;;;7.96;72.25
79413;BME280;68863;49.528;11.010;2023-12-20T00:29:40;98188.97;;;8.15;71.38
79413;BME280;68863;49.528;11.010;2023-12-20T00:30:43;98185.81;;;7.95;72.17
79413;BME280;68863;49.528;11.010;2023-12-20T00:31:43;98183.22;;;7.81;72.46
79413;BME280;68863;49.528;11.010;2023-12-20T00:32:44;98191.31;;;7.48;73.32
79413;BME280;68863;49.528;11.010;2023-12-20T00:33:46;98183.13;;;7.82;72.43
79413;BME280;68863;49.528;11.010;2023-12-20T00:34:47;98175.94;;;8.00;71.90
79413;BME280;68863;49.528;11.010;2023-12-20T00:35:47;98180.78;;;8.06;71.56
79413;BME280;68863;49.528;11.010;2023-12-20T00:36:48;98180.16;;;7.89;71.90
79413;BME280;68863;49.528;11.010;2023-12-20T00:37:48;98181.94;;;7.88;71.94
79413;BME280;68863;49.528;11.010;2023-12-20T00:38:48;98181.16;;;7.86;72.47
79413;BME280;68863;49.528;11.010;2023-12-20T00:39:50;98186.03;;;7.92;72.05
79413;BME280;68863;49.528;11.010;2023-12-20T00:40:50;98186.41;;;7.86;72.25
79413;BME280;68863;49.528;11.010;2023-12-20T00:41:50;98191.06;;;7.81;72.36
79413;BME280;68863;49.528;11.010;2023-12-20T00:42:50;98183.41;;;7.64;73.09
79413;BME280;68863;49.528;11.010;2023-12-20T00:43:51;98177.41;;;7.47;73.86
79413;BME280;68863;49.528;11.010;2023-12-20T00:44:51;98180.50;;;7.82;72.63
79413;BME280;68863;49.528;11.010;2023-12-20T00:45:51;98180.41;;;7.98;71.82
79413;BME280;68863;49.528;11.010;2023-12-20T00:46:51;98175.00;;;8.01;71.54
79413;BME280;68863;49.528;11.010;2023-12-20T00:47:51;98168.47;;;7.94;71.74
79413;BME280;68863;49.528;11.010;2023-12-20T00:48:52;98176.31;;;7.80;72.08
79413;BME280;68863;49.528;11.010;2023-12-20T00:49:52;98175.03;;;7.73;72.50
79413;BME280;68863;49.528;11.010;2023-12-20T00:50:52;98174.72;;;7.92;72.12
79413;BME280;68863;49.528;11.010;2023-12-20T00:51:53;98182.56;;;7.77;72.27
79413;BME280;68863;49.528;11.010;2023-12-20T00:52:53;98177.91;;;7.54;73.18
79413;BME280;68863;49.528;11.010;2023-12-20T00:53:54;98177.06;;;7.53;73.34
79413;BME280;68863;49.528;11.010;2023-12-20T00:54:55;98184.50;;;7.59;72.54
79413;BME280;68863;49.528;11.010;2023-12-20T00:55:55;98176.19;;;7.39;73.76
79413;BME280;68863;49.528;11.010;2023-12-20T00:56:55;98179.28;;;7.45;73.58
79413;BME280;68863;49.528;11.010;2023-12-20T00:57:56;98186.38;;;7.72;72.84
79413;BME280;68863;49.528;11.010;2023-12-20T00:58:56;98182.34;;;7.38;73.58
79413;BME280;68863;49.528;11.010;2023-12-20T00:59:56;98168.56;;;7.78;72.68
79413;BME280;68863;49.528;11.010;2023-12-20T01:00:56;98172.97;;;7.78;72.73
79413;BME280;68863;49.528;11.010;2023-12-20T01:01:58;98174.53;;;7.66;72.55
79413;BME280;68863;49.528;11.010;2023-12-20T01:02:58;98170.53;;;7.75;72.61
79413;BME280;68863;49.528;11.010;2023-12-20T01:03:58;98182.84;;;7.73;72.57
79413;BME280;68863;49.528;11.010;2023-12-20T01:04:59;98178.19;;;7.49;72.86
79413;BME280;68863;49.528;11.010;2023-12-20T01:05:59;98163.63;;;7.59;72.88
79413;BME280;68863;49.528;11.010;2023-12-20T01:06:59;98156.34;;;7.79;72.05
79413;BME280;68863;49.528;11.010;2023-12-20T01:07:59;98162.59;;;7.62;72.97
79413;BME280;68863;49.528;11.010;2023-12-20T01:09:00;98166.91;;;7.77;72.11
79413;BME280;68863;49.528;11.010;2023-12-20T01:10:00;98167.72;;;7.78;72.19
79413;BME280;68863;49.528;11.010;2023-12-20T01:11:00;98174.66;;;7.65;72.23
79413;BME280;68863;49.528;11.010;2023-12-20T01:12:00;98164.94;;;7.81;72.18
79413;BME280;68863;49.528;11.010;2023-12-20T01:13:01;98164.91;;;7.38;72.93
79413;BME280;68863;49.528;11.010;2023-12-20T01:14:01;98156.81;;;7.57;72.46
79413;BME280;68863;49.528;11.010;2023-12-20T01:15:01;98157.94;;;7.67;72.70
79413;BME280;68863;49.528;11.010;2023-12-20T01:16:02;98147.00;;;7.75;72.09
79413;BME280;68863;49.528;11.010;2023-12-20T01:17:02;98152.69;;;7.67;72.46
79413;BME280;68863;49.528;11.010;2023-12-20T01:18:03;98151.03;;;7.80;71.86
79413;BME280;68863;49.528;11.010;2023-12-20T01:19:03;98159.13;;;7.76;71.90
79413;BME280;68863;49.528;11.010;2023-12-20T01:20:04;98162.84;;;7.43;72.38
79413;BME280;68863;49.528;11.010;2023-12-20T01:21:05;98157.16;;;7.22;73.31
79413;BME280;68863;49.528;11.010;2023-12-20T01:22:05;98150.16;;;7.37;73.16
79413;BME280;68863;49.528;11.010;2023-12-20T01:23:05;98156.41;;;7.49;71.86
79413;BME280;68863;49.528;11.010;2023-12-20T01:24:05;98151.84;;;7.52;72.37
79413;BME280;68863;49.528;11.010;2023-12-20T01:25:06;98142.19;;;7.69;71.58
79413;BME280;68863;49.528;11.010;2023-12-20T01:26:07;98154.66;;;7.64;71.73
79413;BME280;68863;49.528;11.010;2023-12-20T01:27:07;98162.28;;;7.24;72.60
79413;BME280;68863;49.528;11.010;2023-12-20T01:28:07;98145.91;;;7.65;71.82
79413;BME280;68863;49.528;11.010;2023-12-20T01:29:07;98152.22;;;7.32;72.21
79413;BME280;68863;49.528;11.010;2023-12-20T01:30:08;98149.59;;;7.32;72.64
79413;BME280;68863;49.528;11.010;2023-12-20T01:31:08;98147.34;;;7.11;72.94
79413;BME280;68863;49.528;11.010;2023-12-20T01:32:09;98155.00;;;7.15;73.74
79413;BME280;68863;49.528;11.010;2023-12-20T01:33:09;98142.78;;;7.15;73.03
79413;BME280;68863;49.528;11.010;2023-12-20T01:34:09;98141.03;;;7.44;72.82
79413;BME280;68863;49.528;11.010;2023-12-20T01:35:10;98142.72;;;7.59;72.11
79413;BME280;68863;49.528;11.010;2023-12-20T01:36:10;98132.09;;;7.77;71.44
79413;BME280;68863;49.528;11.010;2023-12-20T01:37:11;98138.41;;;8.01;70.78
79413;BME280;68863;49.528;11.010;2023-12-20T01:38:11;98138.22;;;7.76;71.14
79413;BME280;68863;49.528;11.010;2023-12-20T01:39:11;98137.88;;;7.82;70.67
79413;BME280;68863;49.528;11.010;2023-12-20T01:40:12;98135.03;;;7.99;70.22
79413;BME280;68863;49.528;11.010;2023-12-20T01:41:12;98131.75;;;8.10;69.98
79413;BME280;68863;49.528;11.010;2023-12-20T01:42:12;98128.47;;;8.21;69.67
79413;BME280;68863;49.528;11.010;2023-12-20T01:43:13;98141.56;;;8.06;69.59
79413;BME280;68863;49.528;11.010;2023-12-20T01:44:13;98139.72;;;7.37;71.76
79413;BME280;68863;49.528;11.010;2023-12-20T01:45:13;98136.16;;;7.24;72.43
79413;BME280;68863;49.528;11.010;2023-12-20T01:46:14;98139.56;;;7.69;71.99
79413;BME280;68863;49.528;11.010;2023-12-20T01:47:14;98135.72;;;7.60;72.31
79413;BME280;68863;49.528;11.010;2023-12-20T01:48:15;98128.63;;;7.48;72.05
79413;BME280;68863;49.528;11.010;2023-12-20T01:49:16;98127.69;;;7.63;71.76
79413;BME280;68863;49.528;11.010;2023-12-20T01:50:16;98125.56;;;7.70;71.65
79413;BME280;68863;49.528;11.010;2023-12-20T01:51:17;98131.88;;;7.37;72.50
79413;BME280;68863;49.528;11.010;2023-12-20T01:52:18;98132.38;;;7.58;71.85
79413;BME280;68863;49.528;11.010;2023-12-20T01:53:20;98133.84;;;7.91;70.72
79413;BME280;68863;49.528;11.010;2023-12-20T01:54:24;98128.34;;;7.81;71.29
79413;BME280;68863;49.528;11.010;2023-12-20T01:55:25;98133.94;;;7.75;71.08
79413;BME280;68863;49.528;11.010;2023-12-20T01:56:28;98132.72;;;7.95;70.23
79413;BME280;68863;49.528;11.010;2023-12-20T01:57:28;98126.94;;;7.75;70.81
79413;BME280;68863;49.528;11.010;2023-12-20T01:58:29;98132.91;;;7.92;69.73
79413;BME280;68863;49.528;11.010;2023-12-20T01:59:29;98150.25;;;7.35;71.06
79413;BME280;68863;49.528;11.010;2023-12-20T02:00:31;98141.22;;;7.41;71.48
79413;BME280;68863;49.528;11.010;2023-12-20T02:01:31;98136.56;;;7.46;70.77
79413;BME280;68863;49.528;11.010;2023-12-20T02:02:33;98137.16;;;7.21;71.85
79413;BME280;68863;49.528;11.010;2023-12-20T02:03:34;98144.16;;;7.21;72.18
79413;BME280;68863;49.528;11.010;2023-12-20T02:04:36;98141.69;;;7.33;71.97
79413;BME280;68863;49.528;11.010;2023-12-20T02:05:38;98132.44;;;7.28;71.39
79413;BME280;68863;49.528;11.010;2023-12-20T02:06:39;98131.00;;;7.08;72.24
79413;BME280;68863;49.528;11.010;2023-12-20T02:07:40;98135.44;;;7.36;71.27
79413;BME280;68863;49.528;11.010;2023-12-20T02:08:40;98134.41;;;7.39;71.24
79413;BME280;68863;49.528;11.010;2023-12-20T02:09:41;98141.03;;;7.30;71.64
79413;BME280;68863;49.528;11.010;2023-12-20T02:10:42;98148.22;;;7.55;70.67
79413;BME280;68863;49.528;11.010;2023-12-20T02:11:43;98141.75;;;7.32;71.07
79413;BME280;68863;49.528;11.010;2023-12-20T02:12:43;98136.81;;;7.27;71.82
79413;BME280;68863;49.528;11.010;2023-12-20T02:13:43;98137.00;;;7.10;72.04
79413;BME280;68863;49.528;11.010;2023-12-20T02:14:43;98136.66;;;7.30;71.30
79413;BME280;68863;49.528;11.010;2023-12-20T02:15:44;98131.78;;;7.24;72.01
79413;BME280;68863;49.528;11.010;2023-12-20T02:16:44;98133.94;;;7.32;71.24
79413;BME280;68863;49.528;11.010;2023-12-20T02:17:46;98128.72;;;7.46;71.36
79413;BME280;68863;49.528;11.010;2023-12-20T02:18:47;98128.69;;;7.18;71.70
79413;BME280;68863;49.528;11.010;2023-12-20T02:19:47;98129.09;;;7.26;71.31
79413;BME280;68863;49.528;11.010;2023-12-20T02:20:47;98134.78;;;6.88;71.65
79413;BME280;68863;49.528;11.010;2023-12-20T02:21:48;98128.84;;;7.00;72.06
79413;BME280;68863;49.528;11.010;2023-12-20T02:22:48;98125.22;;;7.03;72.14
79413;BME280;68863;49.528;11.010;2023-12-20T02:23:48;98126.00;;;7.48;70.98
79413;BME280;68863;49.528;11.010;2023-12-20T02:24:48;98130.38;;;7.33;71.17
79413;BME280;68863;49.528;11.010;2023-12-20T02:25:49;98124.88;;;7.23;71.54
79413;BME280;68863;49.528;11.010;2023-12-20T02:26:49;98126.56;;;7.24;71.46
79413;BME280;68863;49.528;11.010;2023-12-20T02:27:49;98124.03;;;7.37;70.75
79413;BME280;68863;49.528;11.010;2023-12-20T02:28:50;98121.25;;;7.40;71.10
79413;BME280;68863;49.528;11.010;2023-12-20T02:29:50;98128.53;;;7.35;70.60
79413;BME280;68863;49.528;11.010;2023-12-20T02:30:51;98126.13;;;7.46;70.91
79413;BME280;68863;49.528;11.010;2023-12-20T02:31:51;98123.31;;;7.78;69.75
79413;BME280;68863;49.528;11.010;2023-12-20T02:32:52;98125.91;;;7.21;71.12
79413;BME280;68863;49.528;11.010;2023-12-20T02:33:52;98126.72;;;7.21;71.40
79413;BME280;68863;49.528;11.010;2023-12-20T02:34:55;98128.13;;;7.12;70.97
79413;BME280;68863;49.528;11.010;2023-12-20T02:35:55;98125.91;;;7.21;71.07
79413;BME280;68863;49.528;11.010;2023-12-20T02:36:55;98114.84;;;7.46;70.11
79413;BME280;68863;49.528;11.010;2023-12-20T02:37:56;98117.91;;;7.38;69.95
79413;BME280;68863;49.528;11.010;2023-12-20T02:38:56;98114.97;;;7.00;71.36
79413;BME280;68863;49.528;11.010;2023-12-20T02:39:56;98115.84;;;6.84;71.87
79413;BME280;68863;49.528;11.010;2023-12-20T02:40:56;98121.00;;;7.00;71.66
79413;BME280;68863;49.528;11.010;2023-12-20T02:41:57;98118.47;;;6.84;71.22
79413;BME280;68863;49.528;11.010;2023-12-20T02:42:57;98117.56;;;7.00;71.52
79413;BME280;68863;49.528;11.010;2023-12-20T02:43:57;98120.97;;;7.30;70.66
79413;BME280;68863;49.528;11.010;2023-12-20T02:44:57;98125.78;;;7.08;70.74
79413;BME280;68863;49.528;11.010;2023-12-20T02:45:58;98125.88;;;7.06;70.75
79413;BME280;68863;49.528;11.010;2023-12-20T02:46:58;98128.00;;;7.00;71.44
79413;BME280;68863;49.528;11.010;2023-12-20T02:47:58;98126.84;;;7.20;71.21
79413;BME280;68863;49.528;11.010;2023-12-20T02:48:58;98131.53;;;7.43;70.68
79413;BME280;68863;49.528;11.010;2023-12-20T02:49:59;98124.69;;;7.26;70.65
79413;BME280;68863;49.528;11.010;2023-12-20T02:50:59;98138.63;;;7.41;70.41
79413;BME280;68863;49.528;11.010;2023-12-20T02:51:59;98127.97;;;7.30;70.88
79413;BME280;68863;49.528;11.010;2023-12-20T02:52:59;98131.34;;;7.02;71.24
79413;BME280;68863;49.528;11.010;2023-12-20T02:54:00;98117.91;;;6.94;71.42
79413;BME280;68863;49.528;11.010;2023-12-20T02:55:00;98135.00;;;7.13;71.51
79413;BME280;68863;49.528;11.010;2023-12-20T02:56:00;98136.69;;;7.00;71.13
79413;BME280;68863;49.528;11.010;2023-12-20T02:57:00;98139.47;;;6.67;71.81
79413;BME280;68863;49.528;11.010;2023-12-20T02:58:01;98129.78;;;7.13;70.85
79413;BME280;68863;49.528;11.010;2023-12-20T02:59:01;98126.78;;;6.91;71.64
79413;BME280;68863;49.528;11.010;2023-12-20T03:00:01;98130.38;;;7.19;70.46
79413;BME280;68863;49.528;11.010;2023-12-20T03:01:02;98132.06;;;6.90;71.14
79413;BME280;68863;49.528;11.010;2023-12-20T03:02:02;98121.63;;;6.90;70.88
79413;BME280;68863;49.528;11.010;2023-12-20T03:03:03;98131.22;;;6.89;71.46
79413;BME280;68863;49.528;11.010;2023-12-20T03:04:03;98126.56;;;7.24;70.58
79413;BME280;68863;49.528;11.010;2023-12-20T03:05:03;98129.94;;;7.26;70.30
79413;BME280;68863;49.528;11.010;2023-12-20T03:06:04;98128.44;;;6.92;71.01
79413;BME280;68863;49.528;11.010;2023-12-20T03:07:04;98130.00;;;6.80;71.34
79413;BME280;68863;49.528;11.010;2023-12-20T03:08:05;98128.41;;;6.78;71.52
79413;BME280;68863;49.528;11.010;2023-12-20T03:09:05;98118.47;;;6.84;70.79
79413;BME280;68863;49.528;11.010;2023-12-20T03:10:05;98130.09;;;7.23;70.23
79413;BME280;68863;49.528;11.010;2023-12-20T03:11:07;98127.09;;;7.15;69.67
79413;BME280;68863;49.528;11.010;2023-12-20T03:12:07;98125.66;;;6.95;70.47
79413;BME280;68863;49.528;11.010;2023-12-20T03:13:08;98129.59;;;6.72;70.87
79413;BME280;68863;49.528;11.010;2023-12-20T03:14:08;98129.06;;;6.81;71.35
79413;BME280;68863;49.528;11.010;2023-12-20T03:15:10;98126.38;;;6.83;70.97
79413;BME280;68863;49.528;11.010;2023-12-20T03:16:11;98132.28;;;6.71;71.49
79413;BME280;68863;49.528;11.010;2023-12-20T03:17:12;98118.22;;;7.03;70.43
79413;BME280;68863;49.528;11.010;2023-12-20T03:18:12;98142.72;;;7.01;70.23
79413;BME280;68863;49.528;11.010;2023-12-20T03:19:12;98116.81;;;6.98;70.25
79413;BME280;68863;49.528;11.010;2023-12-20T03:20:13;98123.19;;;6.78;70.52
79413;BME280;68863;49.528;11.010;2023-12-20T03:21:13;98117.97;;;6.78;70.06
79413;BME280;68863;49.528;11.010;2023-12-20T03:22:14;98122.56;;;6.88;70.06
79413;BME280;68863;49.528;11.010;2023-12-20T03:23:14;98127.00;;;7.02;69.91
79413;BME280;68863;49.528;11.010;2023-12-20T03:24:14;98123.28;;;7.21;69.06
79413;BME280;68863;49.528;11.010;2023-12-20T03:25:14;98131.56;;;6.69;70.42
79413;BME280;68863;49.528;11.010;2023-12-20T03:26:15;98130.97;;;6.63;71.01
79413;BME280;68863;49.528;11.010;2023-12-20T03:27:15;98127.69;;;6.90;70.63
79413;BME280;68863;49.528;11.010;2023-12-20T03:28:15;98128.50;;;7.06;69.95
79413;BME280;68863;49.528;11.010;2023-12-20T03:29:16;98125.16;;;7.19;69.61
79413;BME280;68863;49.528;11.010;2023-12-20T03:30:16;98136.69;;;6.54;70.81
79413;BME280;68863;49.528;11.010;2023-12-20T03:31:16;98135.53;;;6.60;71.38
79413;BME280;68863;49.528;11.010;2023-12-20T03:32:16;98133.03;;;6.27;72.02
79413;BME280;68863;49.528;11.010;2023-12-20T03:33:17;98127.06;;;6.86;70.97
79413;BME280;68863;49.528;11.010;2023-12-20T03:34:17;98130.56;;;6.85;70.59
79413;BME280;68863;49.528;11.010;2023-12-20T03:35:17;98133.63;;;6.78;71.21
79413;BME280;68863;49.528;11.010;2023-12-20T03:36:18;98136.44;;;6.89;70.50
79413;BME280;68863;49.528;11.010;2023-12-20T03:37:18;98132.69;;;7.09;70.21
79413;BME280;68863;49.528;11.010;2023-12-20T03:38:18;98134.66;;;7.20;69.88
79413;BME280;68863;49.528;11.010;2023-12-20T03:39:19;98135.63;;;6.88;70.25
79413;BME280;68863;49.528;11.010;2023-12-20T03:40:19;98128.44;;;6.92;70.83
79413;BME280;68863;49.528;11.010;2023-12-20T03:41:19;98132.28;;;7.01;69.92
79413;BME280;68863;49.528;11.010;2023-12-20T03:42:20;98136.38;;;6.91;70.72
79413;BME280;68863;49.528;11.010;2023-12-20T03:43:20;98129.28;;;7.23;70.01
79413;BME280;68863;49.528;11.010;2023-12-20T03:44:20;98132.28;;;7.01;70.01
79413;BME280;68863;49.528;11.010;2023-12-20T03:45:20;98133.00;;;6.58;71.02
79413;BME280;68863;49.528;11.010;2023-12-20T03:46:21;98134.78;;;6.88;70.86
79413;BME280;68863;49.528;11.010;2023-12-20T03:47:21;98136.69;;;7.00;70.50
79413;BME280;68863;49.528;11.010;2023-12-20T03:48:22;98134.59;;;6.91;70.57
79413;BME280;68863;49.528;11.010;2023-12-20T03:49:22;98143.75;;;6.68;71.66
79413;BME280;68863;49.528;11.010;2023-12-20T03:50:22;98135.50;;;6.90;71.04
79413;BME280;68863;49.528;11.010;2023-12-20T03:51:22;98147.59;;;6.77;71.34
79413;BME280;68863;49.528;11.010;2023-12-20T03:52:23;98140.53;;;6.79;71.00
79413;BME280;68863;49.528;11.010;2023-12-20T03:53:23;98135.66;;;6.73;71.70
79413;BME280;68863;49.528;11.010;2023-12-20T03:54:24;98132.84;;;7.06;70.88
79413;BME280;68863;49.528;11.010;2023-12-20T03:55:26;98129.72;;;6.85;70.70
79413;BME280;68863;49.528;11.010;2023-12-20T03:56:26;98132.91;;;6.90;71.24
79413;BME280;68863;49.528;11.010;2023-12-20T03:57:26;98133.38;;;6.67;71.18
79413;BME280;68863;49.528;11.010;2023-12-20T03:58:27;98147.09;;;6.70;71.90
79413;BME280;68863;49.528;11.010;2023-12-20T03:59:27;98138.41;;;6.85;71.32
79413;BME280;68863;49.528;11.010;2023-12-20T04:00:27;98138.34;;;7.01;70.83
79413;BME280;68863;49.528;11.010;2023-12-20T04:01:27;98137.38;;;6.88;70.70
79413;BME280;68863;49.528;11.010;2023-12-20T04:02:28;98141.59;;;6.60;71.70
79413;BME280;68863;49.528;11.010;2023-12-20T04:03:28;98144.59;;;6.69;71.29
79413;BME280;68863;49.528;11.010;2023-12-20T04:04:28;98139.28;;;6.70;71.30
79413;BME280;68863;49.528;11.010;2023-12-20T04:05:28;98139.09;;;6.73;71.73
79413;BME280;68863;49.528;11.010;2023-12-20T04:06:29;98136.44;;;6.89;71.33
79413;BME280;68863;49.528;11.010;2023-12-20T04:07:29;98138.56;;;7.12;70.81
79413;BME280;68863;49.528;11.010;2023-12-20T04:08:29;98141.56;;;7.21;69.87
79413;BME280;68863;49.528;11.010;2023-12-20T04:09:30;98135.56;;;7.04;70.56
79413;BME280;68863;49.528;11.010;2023-12-20T04:10:30;98134.22;;;7.27;69.79
79413;BME280;68863;49.528;11.010;2023-12-20T04:11:30;98133.00;;;6.88;70.27
79413;BME280;68863;49.528;11.010;2023-12-20T04:12:31;98136.81;;;6.83;70.28
79413;BME280;68863;49.528;11.010;2023-12-20T04:13:31;98139.13;;;7.03;70.42
79413;BME280;68863;49.528;11.010;2023-12-20T04:14:31;98141.28;;;6.81;70.91
79413;BME280;68863;49.528;11.010;2023-12-20T04:15:32;98140.22;;;6.69;71.24
79413;BME280;68863;49.528;11.010;2023-12-20T04:16:32;98142.28;;;6.78;70.72
79413;BME280;68863;49.528;11.010;2023-12-20T04:17:32;98132.56;;;6.96;70.41
79413;BME280;68863;49.528;11.010;2023-12-20T04:18:33;98133.84;;;6.89;70.50
79413;BME280;68863;49.528;11.010;2023-12-20T04:19:33;98138.31;;;6.87;70.60
79413;BME280;68863;49.528;11.010;2023-12-20T04:20:33;98135.44;;;6.92;70.11
79413;BME280;68863;49.528;11.010;2023-12-20T04:21:33;98133.94;;;6.87;70.24
79413;BME280;68863;49.528;11.010;2023-12-20T04:22:34;98141.41;;;6.63;70.67
79413;BME280;68863;49.528;11.010;2023-12-20T04:23:34;98135.78;;;6.85;70.56
79413;BME280;68863;49.528;11.010;2023-12-20T04:24:34;98147.94;;;6.86;69.61
79413;BME280;68863;49.528;11.010;2023-12-20T04:25:34;98134.50;;;6.93;70.30
79413;BME280;68863;49.528;11.010;2023-12-20T04:26:35;98136.59;;;6.72;70.65
79413;BME280;68863;49.528;11.010;2023-12-20T04:27:35;98146.97;;;6.57;71.32
79413;BME280;68863;49.528;11.010;2023-12-20T04:28:35;98142.59;;;6.42;71.71
79413;BME280;68863;49.528;11.010;2023-12-20T04:29:35;98135.50;;;6.76;70.54
79413;BME280;68863;49.528;11.010;2023-12-20T04:30:36;98131.22;;;6.59;71.36
79413;BME280;68863;49.528;11.010;2023-12-20T04:31:36;98129.19;;;6.94;70.54
79413;BME280;68863;49.528;11.010;2023-12-20T04:32:36;98126.94;;;6.88;70.45
79413;BME280;68863;49.528;11.010;2023-12-20T04:33:37;98128.13;;;7.12;69.90
79413;BME280;68863;49.528;11.010;2023-12-20T04:34:37;98125.50;;;6.98;70.28
79413;BME280;68863;49.528;11.010;2023-12-20T04:35:37;98127.41;;;6.80;70.84
79413;BME280;68863;49.528;11.010;2023-12-20T04:36:37;98128.72;;;6.87;70.32
79413;BME280;68863;49.528;11.010;2023-12-20T04:37:38;98132.44;;;6.83;70.36
79413;BME280;68863;49.528;11.010;2023-12-20T04:38:38;98128.78;;;6.86;70.30
79413;BME280;68863;49.528;11.010;2023-12-20T04:39:38;98133.13;;;6.41;71.71
79413;BME280;68863;49.528;11.010;2023-12-20T04:40:38;98140.16;;;6.85;71.06
79413;BME280;68863;49.528;11.010;2023-12-20T04:41:41;98137.44;;;7.02;70.49
79413;BME280;68863;49.528;11.010;2023-12-20T04:42:41;98139.69;;;7.08;69.86
79413;BME280;68863;49.528;11.010;2023-12-20T04:43:41;98139.78;;;7.07;69.85
79413;BME280;68863;49.528;11.010;2023-12-20T04:44:42;98129.78;;;7.13;69.37
79413;BME280;68863;49.528;11.010;2023-12-20T04:45:43;98138.50;;;6.84;69.92
79413;BME280;68863;49.528;11.010;2023-12-20T04:46:44;98129.06;;;7.11;69.67
79413;BME280;68863;49.528;11.010;2023-12-20T04:47:44;98135.97;;;7.27;69.32
79413;BME280;68863;49.528;11.010;2023-12-20T04:48:45;98142.22;;;7.10;69.40
79413;BME280;68863;49.528;11.010;2023-12-20T04:49:45;98142.16;;;6.96;69.70
79413;BME280;68863;49.528;11.010;2023-12-20T04:50:46;98146.66;;;7.08;69.57
79413;BME280;68863;49.528;11.010;2023-12-20T04:51:46;98144.81;;;7.10;69.59
79413;BME280;68863;49.528;11.010;2023-12-20T04:52:46;98139.28;;;7.00;68.83
79413;BME280;68863;49.528;11.010;2023-12-20T04:53:47;98155.75;;;6.86;70.07
79413;BME280;68863;49.528;11.010;2023-12-20T04:54:47;98148.88;;;7.00;69.82
79413;BME280;68863;49.528;11.010;2023-12-20T04:55:47;98142.94;;;7.12;69.30
79413;BME280;68863;49.528;11.010;2023-12-20T04:56:47;98149.09;;;7.11;69.40
79413;BME280;68863;49.528;11.010;2023-12-20T04:57:48;98152.91;;;6.75;70.08
79413;BME280;68863;49.528;11.010;2023-12-20T04:58:48;98155.03;;;6.69;70.96
79413;BME280;68863;49.528;11.010;2023-12-20T04:59:48;98142.03;;;6.83;70.83
79413;BME280;68863;49.528;11.010;2023-12-20T05:00:49;98142.16;;;6.96;70.38
79413;BME280;68863;49.528;11.010;2023-12-20T05:01:49;98149.31;;;6.92;70.39
79413;BME280;68863;49.528;11.010;2023-12-20T05:02:49;98144.50;;;7.00;70.20
79413;BME280;68863;49.528;11.010;2023-12-20T05:03:49;98146.56;;;7.09;69.85
79413;BME280;68863;49.528;11.010;2023-12-20T05:04:50;98152.09;;;6.89;69.81
79413;BME280;68863;49.528;11.010;2023-12-20T05:05:50;98152.59;;;6.96;69.65
79413;BME280;68863;49.528;11.010;2023-12-20T05:06:50;98156.66;;;6.85;70.49
79413;BME280;68863;49.528;11.010;2023-12-20T05:07:51;98159.00;;;6.90;70.04
79413;BME280;68863;49.528;11.010;2023-12-20T05:08:52;98145.13;;;6.90;70.53
79413;BME280;68863;49.528;11.010;2023-12-20T05:09:52;98158.50;;;6.99;70.05
79413;BME280;68863;49.528;11.010;2023-12-20T05:10:56;98164.19;;;6.76;70.86
79413;BME280;68863;49.528;11.010;2023-12-20T05:11:56;98170.69;;;6.69;71.20
79413;BME280;68863;49.528;11.010;2023-12-20T05:12:57;98157.91;;;6.64;71.11
79413;BME280;68863;49.528;11.010;2023-12-20T05:13:57;98171.47;;;6.85;70.81
79413;BME280;68863;49.528;11.010;2023-12-20T05:14:57;98171.03;;;6.93;70.55
79413;BME280;68863;49.528;11.010;2023-12-20T05:15:58;98171.28;;;6.42;71.51
79413;BME280;68863;49.528;11.010;2023-12-20T05:16:58;98165.47;;;6.69;71.43
79413;BME280;68863;49.528;11.010;2023-12-20T05:17:58;98176.34;;;6.45;71.93
79413;BME280;68863;49.528;11.010;2023-12-20T05:18:59;98167.53;;;6.78;70.55
79413;BME280;68863;49.528;11.010;2023-12-20T05:20:01;98164.03;;;6.63;71.20